Terminal Aerodrome Forecast
Issued by NWS

Home | Current Version | Previous Version | Text Only | Print | Product List | Glossary Off
Versions: 1 2 3 4 5 6 7 8 9 10 11 12 13

796
FTUS43 KMPX 280520
TAFAXN
TAF
KAXN 280520Z 2806/2906 03004KT P6SM SCT080 SCT200
     FM281500 04008KT P6SM BKN050
     FM290000 08004KT P6SM FEW050=

USA.gov is the U.S. government's official web portal to all federal, state and local government web resources and services.